createdAt,value
2023-01-29T00:02:59.480Z,99601.7
2023-01-29T00:09:00.332Z,99597.8
2023-01-29T00:14:48.219Z,99595.3
2023-01-29T00:20:28.173Z,99593.5
2023-01-29T00:26:07.933Z,99583.4
2023-01-29T00:31:43.900Z,99585.1
2023-01-29T00:37:44.138Z,99583
2023-01-29T00:43:19.236Z,99581.7
2023-01-29T00:49:07.083Z,99579.3
2023-01-29T00:54:50.906Z,99575.6
2023-01-29T01:00:28.615Z,99575.8
2023-01-29T01:06:14.013Z,99572.3
2023-01-29T01:11:50.319Z,99564.2
2023-01-29T01:17:25.874Z,99564.8
2023-01-29T01:23:01.528Z,99564.4
2023-01-29T01:28:38.326Z,99561
2023-01-29T01:34:39.293Z,99560.9
2023-01-29T01:40:20.189Z,99563.4
2023-01-29T01:46:17.639Z,99567.7
2023-01-29T01:52:09.456Z,99562.6
2023-01-29T01:57:45.331Z,99572.6
2023-01-29T02:03:24.664Z,99575.9
2023-01-29T02:09:20.401Z,99573.9
2023-01-29T02:14:55.600Z,99577.6
2023-01-29T02:20:34.285Z,99574.4
2023-01-29T02:26:09.605Z,99581
2023-01-29T02:31:47.704Z,99581.1
2023-01-29T02:37:23.046Z,99582.4
2023-01-29T02:42:59.595Z,99582.1
2023-01-29T02:48:37.115Z,99590.8
2023-01-29T02:54:24.819Z,99590.6
2023-01-29T02:59:59.878Z,99589.5
2023-01-29T03:05:40.319Z,99590.5
2023-01-29T03:12:38.974Z,99592
2023-01-29T03:18:23.884Z,99593.1
2023-01-29T03:24:26.771Z,99591.3
2023-01-29T03:30:02.986Z,99589.8
2023-01-29T03:37:01.799Z,99596.6
2023-01-29T03:42:43.329Z,99596.5
2023-01-29T03:48:20.698Z,99595.1
2023-01-29T03:53:59.339Z,99602.5
2023-01-29T04:00:01.271Z,99607.4
2023-01-29T04:05:44.438Z,99612.3
2023-01-29T04:11:19.791Z,99617.3
2023-01-29T04:16:55.675Z,99613.2
2023-01-29T04:22:47.698Z,99605.4
2023-01-29T04:28:30.291Z,99610
2023-01-29T04:34:08.341Z,99611.1
2023-01-29T04:39:45.975Z,99617.3
2023-01-29T04:45:23.155Z,99617.2
2023-01-29T04:50:58.743Z,99618.9
2023-01-29T04:56:55.712Z,99616.8
2023-01-29T05:02:42.249Z,99618.5
2023-01-29T05:08:36.137Z,99619.1
2023-01-29T05:14:15.494Z,99619.9
2023-01-29T05:19:51.148Z,99632
2023-01-29T05:25:28.738Z,99639.3
2023-01-29T05:31:18.651Z,99635.3
2023-01-29T05:37:12.151Z,99642.4
2023-01-29T05:42:51.412Z,99646.7
2023-01-29T05:48:43.606Z,99642.3
2023-01-29T05:54:22.027Z,99654
2023-01-29T06:00:21.978Z,99659.7
2023-01-29T06:05:59.924Z,99658.7
2023-01-29T06:11:58.001Z,99663.1
2023-01-29T06:17:41.061Z,99670.7
2023-01-29T06:23:19.073Z,99674.2
2023-01-29T06:29:02.190Z,99672.1
2023-01-29T06:34:42.604Z,99670.7
2023-01-29T06:40:19.346Z,99670.3
2023-01-29T06:45:54.890Z,99670.1
2023-01-29T06:51:31.877Z,99678.4
2023-01-29T06:57:07.214Z,99677.4
2023-01-29T07:02:51.430Z,99673.7
2023-01-29T07:08:31.828Z,99677.4
2023-01-29T07:14:18.101Z,99680.3
2023-01-29T07:20:02.065Z,99674.3
2023-01-29T07:25:37.466Z,99679.5
2023-01-29T07:31:16.215Z,99682
2023-01-29T07:36:52.445Z,99686.8
2023-01-29T07:42:27.747Z,99692
2023-01-29T07:48:24.753Z,99697.4
2023-01-29T07:54:08.834Z,99695.7
2023-01-29T07:59:43.914Z,99704.3
2023-01-29T08:05:19.064Z,99706.8
2023-01-29T08:10:53.984Z,99708.1
2023-01-29T08:16:30.284Z,99714.3
2023-01-29T08:22:06.202Z,99717.1
2023-01-29T08:27:50.609Z,99712
2023-01-29T08:33:39.889Z,99711.2
2023-01-29T08:39:35.950Z,99722.7
2023-01-29T08:45:11.647Z,99723.3
2023-01-29T08:50:47.917Z,99716.8
2023-01-29T08:56:23.072Z,99726.1
2023-01-29T09:02:01.640Z,99726.8
2023-01-29T09:07:37.406Z,99725.9
2023-01-29T09:13:33.431Z,99727.6
2023-01-29T09:19:17.409Z,99723.6
2023-01-29T09:24:52.967Z,99720
2023-01-29T09:30:28.025Z,99715.6
2023-01-29T09:36:07.117Z,99715.6
2023-01-29T09:41:42.222Z,99726.5
2023-01-29T09:47:17.207Z,99733.9
2023-01-29T09:52:55.715Z,99742.5
2023-01-29T09:58:45.477Z,99752.7
2023-01-29T10:04:22.195Z,99764.4
2023-01-29T10:09:58.844Z,99763.4
2023-01-29T10:15:33.681Z,99767.1
2023-01-29T10:21:09.587Z,99764
2023-01-29T10:26:48.344Z,99766.7
2023-01-29T10:32:23.789Z,99767.5
2023-01-29T10:38:00.066Z,99776.5
2023-01-29T10:43:46.714Z,99773.8
2023-01-29T10:49:37.216Z,99770.6
2023-01-29T10:55:26.095Z,99770.7
2023-01-29T11:01:04.632Z,99777
2023-01-29T11:06:43.747Z,99776.8
2023-01-29T11:12:44.557Z,99770.8
2023-01-29T11:18:19.626Z,99770.9
2023-01-29T11:23:55.553Z,99767.1
2023-01-29T11:29:30.867Z,99760.7
2023-01-29T11:35:08.570Z,99764.9
2023-01-29T11:40:44.961Z,99756.5
2023-01-29T11:46:24.097Z,99754.4
2023-01-29T11:52:07.059Z,99746.9
2023-01-29T11:57:43.670Z,99741.4
2023-01-29T12:03:33.459Z,99738.4
2023-01-29T12:09:24.449Z,99726.8
2023-01-29T12:15:02.179Z,99726.6
2023-01-29T12:20:37.660Z,99718.3
2023-01-29T12:26:14.210Z,99711.1
2023-01-29T12:31:49.950Z,99710.1
2023-01-29T12:37:25.109Z,99707
2023-01-29T12:43:11.225Z,99699.7
2023-01-29T12:49:07.159Z,99687.2
2023-01-29T12:54:42.550Z,99685.2
2023-01-29T13:00:19.250Z,99680.9
2023-01-29T13:05:55.893Z,99676
2023-01-29T13:11:34.041Z,99675.2
2023-01-29T13:17:12.087Z,99671.4
2023-01-29T13:23:15.383Z,99673.3
2023-01-29T13:28:53.754Z,99675.2
2023-01-29T13:34:32.793Z,99679.1
2023-01-29T13:40:08.115Z,99674.8
2023-01-29T13:45:45.813Z,99676.9
2023-01-29T13:51:36.521Z,99682
2023-01-29T13:57:30.118Z,99682.1
2023-01-29T14:03:08.031Z,99682.5
2023-01-29T14:08:45.301Z,99677.8
2023-01-29T14:14:20.255Z,99676.1
2023-01-29T14:19:55.666Z,99677.3
2023-01-29T14:25:36.188Z,99676.2
2023-01-29T14:31:37.389Z,99677.1
2023-01-29T14:37:15.456Z,99682.5
2023-01-29T14:42:51.373Z,99685.7
2023-01-29T14:48:27.297Z,99684.2
2023-01-29T14:54:08.859Z,99685.6
2023-01-29T15:00:01.961Z,99688.2
2023-01-29T15:05:50.880Z,99685
2023-01-29T15:11:35.307Z,99682.3
2023-01-29T15:17:11.862Z,99682.7
2023-01-29T15:23:05.016Z,99683.8
2023-01-29T15:28:40.095Z,99686.7
2023-01-29T15:34:33.508Z,99685
2023-01-29T15:40:08.485Z,99685.6
2023-01-29T15:45:47.444Z,99685.7
2023-01-29T15:51:27.661Z,99687.3
2023-01-29T15:57:02.761Z,99691.4
2023-01-29T16:02:46.215Z,99694.6
2023-01-29T16:08:33.396Z,99701.1
2023-01-29T16:14:16.495Z,99702.4
2023-01-29T16:19:57.062Z,99707.6
2023-01-29T16:25:43.653Z,99714.9
2023-01-29T16:31:27.582Z,99715.6
2023-01-29T16:37:03.996Z,99717.6
2023-01-29T16:42:42.335Z,99717.5
2023-01-29T16:48:17.904Z,99730.4
2023-01-29T16:54:14.055Z,99728.2
2023-01-29T16:59:53.881Z,99730.7
2023-01-29T17:05:34.222Z,99734.9
2023-01-29T17:11:12.789Z,99741.4
2023-01-29T17:16:48.062Z,99749.6
2023-01-29T17:22:31.740Z,99755.9
2023-01-29T17:28:07.444Z,99762.5
2023-01-29T17:33:47.381Z,99768.7
2023-01-29T17:39:23.007Z,99776.6
2023-01-29T17:44:58.429Z,99783.7
2023-01-29T17:50:39.809Z,99787.4
2023-01-29T17:56:18.472Z,99792.9
2023-01-29T18:01:56.396Z,99796.6
2023-01-29T18:07:38.860Z,99800.3
2023-01-29T18:13:16.945Z,99806.7
2023-01-29T18:19:03.679Z,99813.4
2023-01-29T18:24:51.425Z,99813.4
2023-01-29T18:30:29.053Z,99815
2023-01-29T18:36:09.083Z,99820
2023-01-29T18:41:53.593Z,99814.8
2023-01-29T18:47:35.968Z,99809.5
2023-01-29T18:53:41.901Z,99810.6
2023-01-29T18:59:47.505Z,99801.1
2023-01-29T19:05:34.137Z,99804.4
2023-01-29T19:11:39.886Z,99806.7
2023-01-29T19:17:21.559Z,99805.4
2023-01-29T19:23:07.315Z,99802.9
2023-01-29T19:28:43.019Z,99809.6
2023-01-29T19:34:46.571Z,99814.5
2023-01-29T19:40:23.629Z,99815.6
2023-01-29T19:46:01.262Z,99818.6
2023-01-29T19:51:36.701Z,99821.8
2023-01-29T19:57:16.099Z,99825.3
2023-01-29T20:02:53.792Z,99832.8
2023-01-29T20:08:48.962Z,99842.1
2023-01-29T20:14:29.806Z,99852.9
2023-01-29T20:20:34.067Z,99852.8
2023-01-29T20:26:22.206Z,99853.1
2023-01-29T20:32:05.157Z,99858.9
2023-01-29T20:38:10.450Z,99871
2023-01-29T20:43:49.285Z,99872.9
2023-01-29T20:49:51.564Z,99874.8
2023-01-29T20:55:24.576Z,99884.8
2023-01-29T21:01:03.181Z,99884.6
2023-01-29T21:06:39.030Z,99890.6
2023-01-29T21:12:19.779Z,99898.4
2023-01-29T21:18:23.205Z,99897.6
2023-01-29T21:24:16.287Z,99894.2
2023-01-29T21:30:13.875Z,99898.7
2023-01-29T21:36:05.612Z,99905.6
2023-01-29T21:41:50.650Z,99904.2
2023-01-29T21:48:05.135Z,99902.6
2023-01-29T21:53:49.036Z,99900.4
2023-01-29T21:59:28.167Z,99898.2
2023-01-29T22:05:20.702Z,99895
2023-01-29T22:11:00.092Z,99894.5
2023-01-29T22:16:37.498Z,99895.2
2023-01-29T22:22:16.917Z,99891
2023-01-29T22:27:55.090Z,99888.7
2023-01-29T22:33:30.279Z,99891.3
2023-01-29T22:39:07.943Z,99888.2
2023-01-29T22:45:03.482Z,99889.7
2023-01-29T22:50:47.802Z,99887.8
2023-01-29T22:56:28.615Z,99888
2023-01-29T23:03:13.734Z,99889.7
2023-01-29T23:09:06.112Z,99890.1
2023-01-29T23:15:22.610Z,99892
2023-01-29T23:21:07.735Z,99891.8
2023-01-29T23:26:46.350Z,99886.6
2023-01-29T23:32:22.370Z,99886.1
2023-01-29T23:38:01.605Z,99884
2023-01-29T23:43:50.286Z,99872.7
2023-01-29T23:49:27.499Z,99868.5
2023-01-29T23:55:16.400Z,99865.6
